Flight Track Log - Related Links

Times and Time Zones

All times are in EDT time to prevent confusion due to time zone crossing. See the N16112 flight status page for this flight to view local times or setup timezone preferences in your user account.

Time Position Orientation Groundspeed Altitude Reporting Facility
EDT Latitude Longitude Course Direction KTS MPH feet Rate Location/Type
Wed 04:13:35 PM 32.1233 -110.9494 77° East 175 201 3,100  Level Albuquerque Center
Wed 04:14:12 PM 32.1461 -110.9786 313° West 192 221 4,100 1,978 Climbing Albuquerque Center
Wed 04:15:06 PM 32.1844 -111.0211 317° Northwest 222 255 6,100 2,146 Climbing Albuquerque Center
Wed 04:16:15 PM 32.2361 -110.9739 38° Northeast 280 322 8,500 2,139 Climbing Albuquerque Center
Wed 04:17:00 PM 31.8868 -110.4693 74° East  Level FlightAware Approximate
Wed 04:17:01 PM 32.2450 -110.9039 81° East 281 323 10,200  Level Albuquerque Center
Wed 04:17:17 PM 32.2494 -110.8906 68° East 268 308 10,500 1,308 Climbing Albuquerque Center
Wed 04:18:00 PM 31.9073 -110.3305 77° East  Level FlightAware Approximate
Wed 04:18:19 PM 32.2769 -110.7914 72° East 305 351 11,900  Level Albuquerque Center
Wed 04:19:00 PM 31.9350 -110.1921 77° East  Level FlightAware Approximate
Wed 04:19:21 PM 32.3067 -110.6772 73° East 351 404 13,000  Level Albuquerque Center
Wed 04:20:23 PM 32.3289 -110.5286 80° East 387 445 14,800 1,597 Climbing Albuquerque Center
Wed 04:21:25 PM 32.3250 -110.3981 92° East 399 459 16,300 1,452 Climbing Albuquerque Center
Wed 04:22:27 PM 32.3186 -110.2650 93° East 403 464 17,800 1,403 Climbing Albuquerque Center
Wed 04:23:29 PM 32.3119 -110.1317 93° East 406 467 19,200 1,403 Climbing Albuquerque Center
Wed 04:24:31 PM 32.3044 -109.9944 94° East 427 491 20,700 1,403 Climbing Albuquerque Center
Wed 04:25:33 PM 32.2961 -109.8242 93° East 439 505 22,100 1,161 Climbing Albuquerque Center
Wed 04:26:35 PM 32.2897 -109.6803 93° East 442 509 23,100 960 Climbing Albuquerque Center
Wed 04:27:38 PM 32.2828 -109.5356 93° East 443 510 24,100 960 Climbing Albuquerque Center
Wed 04:28:40 PM 32.2628 -109.3897 99° East 450 518 25,100 919 Climbing Albuquerque Center
Wed 04:29:42 PM 32.2389 -109.2144 99° East 455 524 26,000 823 Climbing Albuquerque Center
Wed 04:30:44 PM 32.2197 -109.0653 99° East 461 531 26,800 871 Climbing Albuquerque Center
Wed 04:31:46 PM 32.1989 -108.9186 99° East 461 531 27,800 968 Climbing Albuquerque Center
Wed 04:32:48 PM 32.1803 -108.7725 99° East 458 527 28,800 1,065 Climbing Albuquerque Center
Wed 04:33:50 PM 32.1558 -108.5975 99° East 457 526 30,000 1,016 Climbing Albuquerque Center
Wed 04:34:52 PM 32.1347 -108.4503 100° East 459 528 30,900 484 Climbing Albuquerque Center
Wed 04:35:54 PM 32.1150 -108.2997 99° East 466 536 31,000 484 Climbing Albuquerque Center
Wed 04:36:56 PM 32.0900 -108.1289 100° East 481 554 31,900 919 Climbing Albuquerque Center
Wed 04:37:58 PM 32.0683 -107.9731 99° East 485 558 32,900 968 Climbing Albuquerque Center
Wed 04:39:00 PM 32.0467 -107.8200 99° East 479 551 33,900 968 Climbing Albuquerque Center
Wed 04:40:02 PM 32.0253 -107.6708 100° East 470 541 34,900 629 Climbing Albuquerque Center
Wed 04:41:04 PM 31.9989 -107.4889 100° East 472 543 35,200 629 Climbing Albuquerque Center
Wed 04:42:06 PM 31.9772 -107.3361 99° East 476 548 36,200 871 Climbing Albuquerque Center
Wed 04:43:08 PM 31.9550 -107.1856 100° East 474 545 37,000 387 Climbing Albuquerque Center
Wed 04:44:10 PM 31.9333 -107.0369 100° East 467 537 37,000  Level Albuquerque Center
Wed 04:45:12 PM 31.9103 -106.8819 100° East 475 547 37,000  Level Albuquerque Center
Wed 04:46:14 PM 31.8797 -106.6917 101° East 493 567 37,000  Level Albuquerque Center
Wed 04:47:16 PM 31.8536 -106.5283 101° East 503 579 37,000  Level Albuquerque Center
Wed 04:48:18 PM 31.8303 -106.3633 99° East 510 587 37,000  Level Albuquerque Center
Wed 04:49:20 PM 31.7994 -106.2011 103° East 512 589 37,000  Level Albuquerque Center
Wed 04:50:22 PM 31.7575 -106.0469 108° East 499 574 37,000  Level Albuquerque Center
Wed 04:51:24 PM 31.7175 -105.8897 107° East 501 577 37,000  Level Albuquerque Center
Wed 04:52:26 PM 31.6786 -105.7319 106° East 505 581 37,000  Level Albuquerque Center
Wed 04:53:28 PM 31.6306 -105.5436 107° East 501 577 37,000  Level Albuquerque Center
Wed 04:54:30 PM 31.5914 -105.3853 106° East 503 579 37,000  Level Albuquerque Center
Wed 04:55:32 PM 31.5517 -105.2289 107° East 500 575 37,000  Level Albuquerque Center
Wed 04:56:34 PM 31.5111 -105.0706 107° East 504 580 37,000  Level Albuquerque Center
Wed 04:57:36 PM 31.4706 -104.9133 107° East 502 578 37,000  Level Albuquerque Center
Wed 04:58:38 PM 31.4306 -104.7547 106° East 504 580 37,000  Level Albuquerque Center
Wed 04:59:40 PM 31.3889 -104.5983 107° East 503 579 37,000  Level Albuquerque Center
Wed 05:00:42 PM 31.3403 -104.4103 107° East 502 578 37,000  Level Albuquerque Center
Wed 05:01:44 PM 31.3003 -104.2542 107° East 501 577 37,000  Level Albuquerque Center
Wed 05:02:47 PM 31.2583 -104.0978 107° East 503 579 37,000  Level Albuquerque Center
Wed 05:03:49 PM 31.2175 -103.9425 107° East 502 578 37,000  Level Albuquerque Center
Wed 05:04:51 PM 31.1739 -103.7881 108° East 501 577 37,000  Level Albuquerque Center
Wed 05:05:53 PM 31.1303 -103.6286 108° East 500 575 37,000  Level Albuquerque Center
Wed 05:06:55 PM 31.0875 -103.4753 108° East 500 575 37,000  Level Albuquerque Center
Wed 05:07:57 PM 31.0372 -103.2914 108° East 499 574 37,000  Level Albuquerque Center
Wed 05:08:59 PM 30.9953 -103.1394 108° East 498 573 37,000  Level Albuquerque Center
Wed 05:10:01 PM 30.9556 -102.9889 107° East 491 565 37,000  Level Albuquerque Center
Wed 05:11:03 PM 30.9142 -102.8356 107° East 496 571 37,000  Level Albuquerque Center
Wed 05:12:05 PM 30.8750 -102.6822 107° East 498 573 37,000  Level Albuquerque Center
Wed 05:13:07 PM 30.8269 -102.4983 107° East 499 574 37,000  Level Albuquerque Center
Wed 05:14:09 PM 30.7867 -102.3444 107° East 501 577 37,000  Level Albuquerque Center
Wed 05:15:11 PM 30.7467 -102.1922 107° East 499 574 37,000  Level Albuquerque Center
Wed 05:16:13 PM 30.7061 -102.0397 107° East 499 574 37,000  Level Albuquerque Center
Wed 05:17:15 PM 30.6658 -101.8856 107° East 500 575 37,000  Level Albuquerque Center
Wed 05:18:46 PM 30.5994 -101.6408 107° East 498 573 37,000 -39 Level Houston Center
Wed 05:19:49 PM 30.5542 -101.4689 107° East 498 573 36,900  Descending Houston Center
Wed 05:20:51 PM 30.5128 -101.3158 107° East 499 574 37,000 48 Climbing Houston Center
Wed 05:21:53 PM 30.4717 -101.1633 107° East 497 572 37,000  Level Houston Center
Wed 05:22:55 PM 30.4294 -101.0092 108° East 501 577 37,000  Level Houston Center
Wed 05:23:57 PM 30.3867 -100.8575 108° East 496 571 37,000  Level Houston Center
Wed 05:24:59 PM 30.3447 -100.7036 107° East 500 575 37,000  Level Houston Center
Wed 05:26:01 PM 30.2942 -100.5189 108° East 500 575 37,000  Level Houston Center
Wed 05:27:03 PM 30.2511 -100.3642 108° East 502 578 37,000  Level Houston Center
Wed 05:28:05 PM 30.2086 -100.2058 107° East 505 581 37,000  Level Houston Center
Wed 05:29:08 PM 30.1633 -100.0489 108° East 507 583 37,000  Level Houston Center
Wed 05:30:10 PM 30.1186 -99.8942 108° East 504 580 37,000  Level Houston Center
Wed 05:31:12 PM 30.0742 -99.7397 108° East 505 581 37,000  Level Houston Center
Wed 05:32:14 PM 30.0289 -99.5858 109° East 506 582 37,000  Level Houston Center
Wed 05:33:16 PM 29.9850 -99.4317 108° East 506 582 37,000  Level Houston Center
Wed 05:34:18 PM 29.9333 -99.2472 108° East 504 580 37,000  Level Houston Center
Wed 05:35:20 PM 29.8800 -99.0967 112° Southeast 506 582 37,000  Level Houston Center
Wed 05:36:22 PM 29.8211 -98.9358 113° Southeast 502 578 37,000  Level Houston Center
Wed 05:37:25 PM 29.7653 -98.7858 113° Southeast 509 586 37,000  Level Houston Center
Wed 05:38:27 PM 29.7050 -98.6253 113° Southeast 508 585 37,000  Level Houston Center
Wed 05:39:29 PM 29.6553 -98.4781 111° Southeast 517 595 37,000  Level Houston Center
Wed 05:40:31 PM 29.6472 -98.3008 93° East 527 606 37,000  Level Houston Center
Wed 05:41:33 PM 29.6492 -98.1194 89° East 527 606 37,000  Level Houston Center
Wed 05:42:35 PM 29.6517 -97.9514 89° East 527 606 37,000  Level Houston Center
Wed 05:43:37 PM 29.6469 -97.8053 92° East 524 603 37,000 -919 Level Houston Center
Wed 05:44:39 PM 29.6356 -97.6067 94° East 520 598 35,100 -2,032 Descending Houston Center
Wed 05:45:41 PM 29.6258 -97.4456 94° East 508 585 32,800 -2,352 Descending Houston Center
Wed 05:46:44 PM 29.6167 -97.2875 94° East 496 571 30,200 -2,544 Descending Houston Center
Wed 05:47:46 PM 29.6075 -97.1328 94° East 488 562 27,500 -2,613 Descending Houston Center
Wed 05:48:48 PM 29.5978 -96.9769 94° East 485 558 24,800 -2,565 Descending Houston Center
Wed 05:49:50 PM 29.5883 -96.8211 94° East 482 555 22,200 -2,419 Descending Houston Center
Wed 05:50:52 PM 29.5781 -96.6681 94° East 477 549 19,800 -2,274 Descending Houston Center
Wed 05:51:54 PM 29.5694 -96.5289 94° East 438 504 17,500 -2,542 Descending Houston Center
Wed 05:52:50 PM 29.5589 -96.3739 94° East 435 501 14,800 -2,486 Descending Houston Center
Wed 05:53:45 PM 29.5492 -96.2575 95° East 389 448 12,900 -1,527 Descending Houston Center
Wed 05:54:40 PM 29.5553 -96.1561 86° East 336 387 12,000 -880 Descending Houston Center
Wed 05:55:00 PM 29.5644 -96.1306 68° East 353 406 11,800 -896 Descending Houston Center
Wed 05:55:47 PM 29.6067 -96.0469 60° Northeast 351 404 11,000 -857 Descending Houston Center
Wed 05:56:03 PM 29.6108 -96.0364 66° East 342 394 10,900 -873 Descending Houston Center
Wed 05:56:42 PM 29.6514 -95.9578 59° Northeast 356 410 10,200 -871 Descending Houston Center
Wed 05:57:05 PM 29.6656 -95.9278 61° Northeast 353 406 10,000 -197 Descending Houston Center
Wed 05:57:43 PM 29.6994 -95.8608 60° Northeast 349 402 10,000  Level Houston Center
Wed 05:58:07 PM 29.7142 -95.8333 58° Northeast 347 399 10,000 -492 Level Houston Center
Wed 05:58:44 PM 29.7422 -95.7742 61° Northeast 293 337 9,500 -871 Descending Houston Center
Wed 05:59:09 PM 29.7553 -95.7503 58° Northeast 305 351 9,100 -1,071 Descending Houston Center
Wed 05:59:40 PM 29.7817 -95.6975 60° Northeast 300 345 8,500 -968 Descending Houston Center
Wed 06:00:11 PM 29.7967 -95.6669 60° Northeast 297 342 8,100 -1,082 Descending Houston Center
Wed 06:00:41 PM 29.8225 -95.6133 61° Northeast 290 334 7,400 -1,065 Descending Houston Center
Wed 06:01:13 PM 29.8361 -95.5875 59° Northeast 287 330 7,000 -985 Descending Houston Center
Wed 06:01:48 PM 29.8653 -95.5286 60° Northeast 271 312 6,300 -968 Descending Houston Center
Wed 06:02:15 PM 29.8822 -95.4961 59° Northeast 274 315 6,000 -327 Descending Houston Center
Wed 06:02:43 PM 29.8942 -95.4553 71° East 287 330 6,000  Level Houston Center
Wed 06:03:17 PM 29.8958 -95.4072 88° East 286 329 6,000  Level Houston Center
Wed 06:03:44 PM 29.8967 -95.3658 89° East 282 325 6,000  Level Houston Center
Wed 06:04:20 PM 29.8967 -95.3181 90° East 281 323 6,000  Level Houston Center
Wed 06:04:51 PM 29.8956 -95.2625 91° East 282 325 6,000  Level Houston Center
Wed 06:05:22 PM 29.8967 -95.2294 88° East 276 318 6,000 -321 Level Houston Center
Wed 06:05:47 PM 29.8972 -95.1900 89° East 240 276 5,700 -774 Descending Houston Center
Wed 06:06:24 PM 29.9000 -95.1536 85° East 242 278 5,200 -968 Descending Houston Center
Wed 06:06:49 PM 29.9278 -95.1356 29° Northeast 236 272 4,700 -968 Descending Houston Center
Wed 06:07:26 PM 29.9586 -95.1333 North 231 266 4,200 -727 Descending Houston Center
Wed 06:07:55 PM 29.9933 -95.1394 351° North 192 221 3,900 -621 Descending Houston Center

Login

Don't have an account? Register now (free) for customized features, flight alerts, and more!